createdAt,value
2019-04-23T00:02:29.156Z,4.47
2019-04-23T00:05:02.102Z,4.03
2019-04-23T00:07:44.501Z,5.37
2019-04-23T00:10:11.784Z,4.03
2019-04-23T00:12:43.678Z,4.70
2019-04-23T00:17:42.269Z,3.97
2019-04-23T00:20:14.783Z,4.33
2019-04-23T00:25:43.884Z,4.33
2019-04-23T00:28:06.549Z,3.77
2019-04-23T00:30:44.947Z,3.70
2019-04-23T00:33:15.446Z,3.63
2019-04-23T00:35:41.689Z,3.50
2019-04-23T00:40:45.403Z,3.80
2019-04-23T00:43:21.861Z,3.87
2019-04-23T00:48:29.403Z,4.40
2019-04-23T00:50:56.151Z,5.27
2019-04-23T00:53:23.393Z,3.70
2019-04-23T00:56:04.139Z,3.67
2019-04-23T00:58:32.602Z,4.50
2019-04-23T01:01:11.772Z,5.07
2019-04-23T01:03:25.205Z,3.63
2019-04-23T01:06:00.658Z,3.97
2019-04-23T01:08:31.777Z,4.00
2019-04-23T01:11:08.277Z,4.03
2019-04-23T01:13:51.191Z,4.20
2019-04-23T01:21:24.384Z,5.37
2019-04-23T01:24:04.365Z,4.60
2019-04-23T01:27:25.619Z,3.73
2019-04-23T01:29:50.627Z,3.60
2019-04-23T01:32:20.810Z,5.10
2019-04-23T01:34:59.412Z,3.97
2019-04-23T01:37:25.733Z,3.80
2019-04-23T01:39:58.179Z,3.83
2019-04-23T01:45:03.380Z,3.93
2019-04-23T01:47:36.959Z,3.43
2019-04-23T01:50:20.160Z,4.27
2019-04-23T01:55:21.357Z,5.07
2019-04-23T01:57:58.516Z,3.53
2019-04-23T02:00:24.132Z,3.27
2019-04-23T02:02:55.449Z,3.97
2019-04-23T02:08:00.260Z,3.27
2019-04-23T02:13:01.999Z,4.37
2019-04-23T02:15:47.407Z,3.73
2019-04-23T02:18:05.269Z,4.17
2019-04-23T02:20:44.384Z,4.13
2019-04-23T02:23:26.016Z,2.90
2019-04-23T02:25:55.100Z,3.50
2019-04-23T02:28:37.104Z,3.20
2019-04-23T02:41:20.404Z,3.93
2019-04-23T02:43:33.670Z,3.37
2019-04-23T02:51:21.660Z,4.17
2019-04-23T02:54:10.141Z,3.23
2019-04-23T02:56:34.715Z,3.87
2019-04-23T03:03:59.753Z,4.07
2019-04-23T03:06:27.395Z,4.87
2019-04-23T03:11:38.468Z,3.63
2019-04-23T03:14:15.877Z,3.70
2019-04-23T03:19:17.019Z,3.70
2019-04-23T03:22:03.787Z,3.87
2019-04-23T03:27:23.386Z,4.40
2019-04-23T03:37:34.061Z,3.90
2019-04-23T03:40:11.570Z,3.90
2019-04-23T03:42:37.195Z,3.77
2019-04-23T03:45:07.633Z,4.33
2019-04-23T03:55:11.733Z,4.23
2019-04-23T04:00:32.625Z,4.23
2019-04-23T04:05:24.555Z,4.33
2019-04-23T04:10:20.130Z,4.30
2019-04-23T04:15:48.964Z,4.23
2019-04-23T04:18:03.939Z,4.47
2019-04-23T04:23:15.475Z,4.10
2019-04-23T04:30:38.815Z,3.73
2019-04-23T04:33:29.657Z,4.20
2019-04-23T04:35:57.975Z,4.87
2019-04-23T04:46:17.201Z,3.77
2019-04-23T04:48:37.743Z,3.90
2019-04-23T04:51:15.717Z,4.20
2019-04-23T04:53:50.527Z,4.47
2019-04-23T04:58:52.856Z,3.80
2019-04-23T05:03:29.591Z,5.17
2019-04-23T05:08:48.398Z,5.90
2019-04-23T05:11:28.188Z,4.00
2019-04-23T05:14:08.314Z,4.07
2019-04-23T05:16:19.364Z,3.83
2019-04-23T05:18:53.592Z,4.23
2019-04-23T05:21:20.998Z,4.37
2019-04-23T05:26:25.117Z,4.40
2019-04-23T05:31:23.126Z,3.93
2019-04-23T05:34:14.715Z,4.60
2019-04-23T05:36:34.398Z,3.87
2019-04-23T05:39:12.076Z,4.40
2019-04-23T05:41:45.622Z,4.43
2019-04-23T05:44:10.346Z,4.90
2019-04-23T05:49:22.643Z,5.10
2019-04-23T05:54:29.979Z,4.43
2019-04-23T05:56:51.982Z,5.83
2019-04-23T05:59:45.197Z,4.57
2019-04-23T06:01:57.234Z,5.00
2019-04-23T06:04:30.694Z,4.80
2019-04-23T06:07:16.998Z,4.33
2019-04-23T06:09:31.312Z,4.97
2019-04-23T06:12:21.507Z,4.70
2019-04-23T06:14:45.768Z,5.23
2019-04-23T06:19:42.539Z,6.03
2019-04-23T06:24:46.717Z,4.10
2019-04-23T06:27:19.828Z,3.73
2019-04-23T06:29:43.189Z,4.63
2019-04-23T06:32:22.738Z,5.10
2019-04-23T06:34:53.237Z,4.93
2019-04-23T06:37:28.385Z,5.00
2019-04-23T06:39:55.375Z,5.20
2019-04-23T06:42:23.328Z,4.40
2019-04-23T06:44:58.238Z,5.40
2019-04-23T06:47:25.931Z,4.73
2019-04-23T06:49:58.499Z,5.27
2019-04-23T06:52:24.736Z,5.37
2019-04-23T06:57:42.609Z,4.80
2019-04-23T07:00:08.375Z,5.13
2019-04-23T07:02:37.656Z,5.40
2019-04-23T07:07:58.377Z,4.83
2019-04-23T07:12:47.221Z,4.63
2019-04-23T07:17:51.147Z,4.97
2019-04-23T07:20:21.615Z,5.63
2019-04-23T07:22:57.006Z,4.93
2019-04-23T07:25:25.244Z,4.73
2019-04-23T07:27:58.518Z,4.90
2019-04-23T07:30:29.501Z,5.13
2019-04-23T07:32:56.598Z,4.73
2019-04-23T07:35:30.535Z,4.87
2019-04-23T07:38:32.742Z,4.00
2019-04-23T07:41:09.715Z,4.60
2019-04-23T07:43:30.769Z,6.33
2019-04-23T07:46:33.873Z,5.13
2019-04-23T07:48:48.034Z,4.17
2019-04-23T07:51:21.247Z,4.57
2019-04-23T07:53:53.461Z,5.23
2019-04-23T07:56:24.083Z,4.87
2019-04-23T07:58:58.415Z,4.70
2019-04-23T08:01:39.167Z,5.67
2019-04-23T08:03:54.180Z,5.93
2019-04-23T08:06:31.980Z,5.10
2019-04-23T08:09:03.665Z,5.47
2019-04-23T08:14:16.963Z,5.17
2019-04-23T08:21:40.002Z,4.93
2019-04-23T08:24:32.897Z,4.90
2019-04-23T08:27:08.227Z,5.47
2019-04-23T08:29:30.256Z,5.57
2019-04-23T08:32:15.096Z,5.03
2019-04-23T08:34:49.423Z,4.33
2019-04-23T08:37:15.343Z,5.07
2019-04-23T08:39:43.456Z,5.40
2019-04-23T08:45:06.991Z,5.30
2019-04-23T08:47:27.764Z,5.10
2019-04-23T08:50:15.409Z,5.57
2019-04-23T08:52:31.184Z,6.73
2019-04-23T08:55:06.538Z,5.47
2019-04-23T08:57:33.322Z,4.97
2019-04-23T09:00:05.990Z,6.10
2019-04-23T09:05:16.421Z,5.53
2019-04-23T09:07:45.671Z,6.00
2019-04-23T09:10:17.849Z,5.33
2019-04-23T09:12:45.904Z,4.50
2019-04-23T09:15:23.136Z,5.70
2019-04-23T09:17:56.285Z,6.27
2019-04-23T09:20:21.871Z,5.40
2019-04-23T09:23:03.686Z,5.43
2019-04-23T09:25:28.334Z,5.17
2019-04-23T09:27:54.433Z,5.17
2019-04-23T09:30:28.503Z,5.27
2019-04-23T09:33:06.177Z,5.13
2019-04-23T09:36:03.034Z,5.33
2019-04-23T09:38:23.791Z,5.63
2019-04-23T09:41:22.197Z,5.70
2019-04-23T09:43:48.315Z,5.50
2019-04-23T09:49:00.070Z,6.73
2019-04-23T09:51:27.674Z,5.67
2019-04-23T09:53:58.054Z,6.10
2019-04-23T09:56:32.155Z,20.90
2019-04-23T09:59:02.989Z,6.60
2019-04-23T10:03:50.848Z,5.83
2019-04-23T10:06:18.240Z,5.70
2019-04-23T10:08:48.946Z,6.00
2019-04-23T10:11:13.756Z,6.20
2019-04-23T10:13:45.054Z,6.93
2019-04-23T10:16:19.223Z,6.40
2019-04-23T10:18:47.167Z,5.47
2019-04-23T10:21:17.467Z,6.40
2019-04-23T10:23:49.607Z,6.50
2019-04-23T10:26:19.862Z,6.60
2019-04-23T10:28:58.247Z,12.90
2019-04-23T10:31:28.101Z,6.73
2019-04-23T10:33:58.121Z,7.03
2019-04-23T10:36:30.061Z,7.10
2019-04-23T10:39:08.483Z,7.03
2019-04-23T10:41:35.306Z,6.87
2019-04-23T10:44:11.068Z,6.83
2019-04-23T10:47:12.216Z,7.27
2019-04-23T10:49:53.237Z,7.43
2019-04-23T10:52:24.877Z,7.20
2019-04-23T10:54:45.157Z,5.83
2019-04-23T10:59:47.150Z,8.30
2019-04-23T11:07:32.522Z,7.80
2019-04-23T11:10:05.578Z,7.70
2019-04-23T11:15:28.702Z,5.93
2019-04-23T11:20:30.480Z,6.47
2019-04-23T11:25:31.506Z,6.77
2019-04-23T11:36:02.407Z,6.63
2019-04-23T11:38:35.528Z,7.73
2019-04-23T11:40:54.304Z,7.90
2019-04-23T11:46:06.259Z,6.33
2019-04-23T11:51:26.777Z,6.67
2019-04-23T11:53:28.248Z,7.37
2019-04-23T11:55:52.103Z,7.10
2019-04-23T11:58:29.054Z,7.20
2019-04-23T12:01:26.142Z,8.40
2019-04-23T12:06:45.998Z,6.83
2019-04-23T12:09:35.500Z,7.00
2019-04-23T12:11:58.546Z,7.37
2019-04-23T12:19:57.636Z,6.83
2019-04-23T12:25:11.276Z,6.60
2019-04-23T12:27:31.451Z,6.93
2019-04-23T12:32:48.327Z,7.30
2019-04-23T12:40:17.033Z,5.53
2019-04-23T12:47:50.020Z,7.57
2019-04-23T12:50:41.875Z,6.67
2019-04-23T12:52:47.820Z,6.30
2019-04-23T12:55:27.920Z,7.20
2019-04-23T13:02:52.398Z,6.80
2019-04-23T13:08:15.492Z,7.90
2019-04-23T13:10:44.076Z,7.43
2019-04-23T13:13:11.369Z,7.47
2019-04-23T13:15:36.218Z,8.00
2019-04-23T13:18:23.885Z,7.33
2019-04-23T13:20:51.288Z,6.60
2019-04-23T13:23:16.559Z,6.50
2019-04-23T13:25:47.363Z,8.33
2019-04-23T13:30:53.055Z,8.20
2019-04-23T13:38:35.061Z,6.93
2019-04-23T13:41:04.669Z,7.43
2019-04-23T13:43:37.965Z,7.13
2019-04-23T13:46:07.326Z,6.90
2019-04-23T13:48:24.648Z,8.17
2019-04-23T13:51:09.531Z,7.00
2019-04-23T13:53:44.008Z,6.83
2019-04-23T13:56:13.719Z,7.97
2019-04-23T13:58:43.315Z,7.30
2019-04-23T14:01:18.219Z,8.10
2019-04-23T14:03:54.085Z,6.90
2019-04-23T14:11:24.858Z,8.50
2019-04-23T14:14:08.425Z,9.10
2019-04-23T14:16:29.690Z,7.23
2019-04-23T14:24:09.878Z,8.13
2019-04-23T14:26:39.701Z,7.73
2019-04-23T14:29:01.184Z,9.70
2019-04-23T14:31:28.419Z,7.67
2019-04-23T14:34:06.459Z,8.50
2019-04-23T14:36:36.144Z,9.33
2019-04-23T14:39:10.092Z,8.33
2019-04-23T14:41:56.481Z,8.03
2019-04-23T14:44:16.179Z,6.80
2019-04-23T14:49:18.878Z,9.13
2019-04-23T14:52:00.336Z,7.53
2019-04-23T14:55:01.364Z,8.93
2019-04-23T14:57:21.274Z,8.37
2019-04-23T14:59:24.455Z,8.53
2019-04-23T15:02:04.673Z,7.70
2019-04-23T15:04:32.068Z,7.00
2019-04-23T15:07:15.593Z,6.97
2019-04-23T15:09:52.213Z,8.90
2019-04-23T15:14:52.759Z,8.63
2019-04-23T15:17:16.276Z,6.80
2019-04-23T15:19:49.402Z,7.30
2019-04-23T15:22:20.201Z,6.63
2019-04-23T15:25:19.532Z,7.33
2019-04-23T15:28:03.448Z,8.27
2019-04-23T15:29:46.770Z,8.57
2019-04-23T15:32:24.934Z,8.43
2019-04-23T15:35:13.396Z,7.67
2019-04-23T15:37:41.050Z,7.37
2019-04-23T15:42:29.503Z,7.40
2019-04-23T15:47:40.131Z,8.73
2019-04-23T15:52:47.843Z,7.90
2019-04-23T15:55:08.282Z,7.07
2019-04-23T16:00:15.962Z,7.47
2019-04-23T16:02:17.175Z,7.93
2019-04-23T16:04:47.262Z,7.93
2019-04-23T16:07:37.234Z,8.83
2019-04-23T16:10:25.921Z,8.20
2019-04-23T16:12:53.459Z,7.70
2019-04-23T16:15:41.985Z,7.40
2019-04-23T16:18:08.137Z,8.20
2019-04-23T16:20:37.332Z,8.47
2019-04-23T16:22:55.974Z,8.07
2019-04-23T16:25:52.992Z,8.87
2019-04-23T16:28:13.027Z,7.83
2019-04-23T16:30:46.504Z,7.33
2019-04-23T16:36:05.575Z,7.87
2019-04-23T16:41:11.342Z,8.03
2019-04-23T16:43:38.205Z,7.90
2019-04-23T16:46:11.515Z,8.87
2019-04-23T16:48:49.230Z,8.43
2019-04-23T16:53:35.781Z,9.40
2019-04-23T16:56:16.414Z,9.50
2019-04-23T16:58:54.065Z,7.90
2019-04-23T17:01:12.128Z,7.97
2019-04-23T17:04:01.260Z,7.30
2019-04-23T17:06:27.943Z,8.27
2019-04-23T17:11:25.229Z,8.60
2019-04-23T17:14:02.765Z,8.50
2019-04-23T17:16:40.127Z,9.33
2019-04-23T17:19:03.326Z,8.93
2019-04-23T17:21:32.402Z,7.80
2019-04-23T17:24:15.365Z,9.73
2019-04-23T17:26:41.395Z,8.50
2019-04-23T17:31:45.355Z,8.50
2019-04-23T17:34:24.420Z,8.40
2019-04-23T17:36:51.430Z,8.23
2019-04-23T17:47:08.709Z,7.97
2019-04-23T17:50:01.721Z,7.93
2019-04-23T17:52:17.122Z,8.70
2019-04-23T17:54:43.271Z,8.80
2019-04-23T18:00:08.336Z,8.93
2019-04-23T18:02:49.668Z,7.43
2019-04-23T18:05:02.583Z,9.83
2019-04-23T18:07:37.821Z,8.37
2019-04-23T18:10:15.021Z,8.80
2019-04-23T18:12:39.178Z,7.50
2019-04-23T18:15:03.451Z,8.50
2019-04-23T18:17:35.568Z,7.40
2019-04-23T18:20:13.364Z,8.17
2019-04-23T18:30:42.869Z,8.40
2019-04-23T18:33:43.400Z,7.97
2019-04-23T18:35:47.695Z,9.00
2019-04-23T18:38:13.604Z,8.27
2019-04-23T18:41:02.500Z,7.60
2019-04-23T18:46:06.923Z,8.30
2019-04-23T18:56:09.302Z,8.00
2019-04-23T18:58:50.345Z,8.43
2019-04-23T19:04:07.083Z,8.30
2019-04-23T19:11:40.420Z,7.67
2019-04-23T19:13:57.665Z,7.17
2019-04-23T19:16:31.400Z,7.40
2019-04-23T19:19:02.757Z,6.50
2019-04-23T19:24:21.373Z,6.13
2019-04-23T19:29:11.593Z,6.30
2019-04-23T19:31:55.890Z,6.13
2019-04-23T19:36:59.432Z,5.47
2019-04-23T19:42:03.830Z,5.77
2019-04-23T19:44:33.911Z,7.37
2019-04-23T19:47:16.967Z,6.90
2019-04-23T19:54:50.864Z,6.63
2019-04-23T19:57:26.438Z,6.13
2019-04-23T20:02:15.008Z,5.80
2019-04-23T20:07:25.395Z,6.63
2019-04-23T20:12:13.285Z,6.97
2019-04-23T20:14:52.192Z,6.43
2019-04-23T20:22:38.524Z,5.30
2019-04-23T20:25:10.773Z,5.83
2019-04-23T20:27:32.087Z,6.27
2019-04-23T20:35:16.476Z,5.87
2019-04-23T20:42:53.021Z,6.73
2019-04-23T20:45:22.607Z,6.50
2019-04-23T20:47:51.619Z,5.23
2019-04-23T20:50:17.314Z,5.67
2019-04-23T20:53:03.329Z,5.03
2019-04-23T20:55:31.188Z,5.37
2019-04-23T20:58:13.712Z,5.87
2019-04-23T21:00:57.160Z,5.90
2019-04-23T21:05:50.407Z,6.00
2019-04-23T21:08:44.335Z,6.43
2019-04-23T21:16:04.991Z,6.00
2019-04-23T21:18:35.992Z,6.37
2019-04-23T21:21:00.894Z,6.23
2019-04-23T21:25:57.379Z,6.47
2019-04-23T21:28:44.344Z,7.03
2019-04-23T21:31:11.456Z,6.23
2019-04-23T21:39:29.356Z,6.13
2019-04-23T21:44:28.912Z,7.47
2019-04-23T21:47:04.216Z,6.53
2019-04-23T21:52:07.878Z,7.83
2019-04-23T21:54:47.634Z,7.70
2019-04-23T21:57:09.103Z,8.10
2019-04-23T21:59:41.425Z,6.97
2019-04-23T22:02:11.103Z,7.73
2019-04-23T22:04:54.051Z,8.83
2019-04-23T22:07:19.397Z,7.10
2019-04-23T22:09:51.900Z,7.73
2019-04-23T22:14:50.750Z,7.57
2019-04-23T22:17:24.846Z,7.77
2019-04-23T22:20:03.117Z,8.63
2019-04-23T22:22:32.025Z,7.47
2019-04-23T22:24:57.255Z,8.13
2019-04-23T22:27:36.122Z,8.17
2019-04-23T22:29:59.189Z,7.77
2019-04-23T22:32:40.205Z,8.30
2019-04-23T22:35:07.999Z,8.87
2019-04-23T22:37:46.335Z,7.90
2019-04-23T22:40:04.801Z,7.00
2019-04-23T22:45:27.138Z,7.20
2019-04-23T22:47:50.564Z,8.77
2019-04-23T22:52:56.809Z,8.00
2019-04-23T22:55:15.506Z,8.77
2019-04-23T23:00:33.605Z,7.73
2019-04-23T23:03:11.617Z,8.30
2019-04-23T23:05:53.707Z,8.77
2019-04-23T23:10:36.653Z,7.10
2019-04-23T23:15:43.625Z,7.73
2019-04-23T23:20:51.113Z,7.70
2019-04-23T23:23:18.030Z,7.03
2019-04-23T23:25:51.579Z,8.23
2019-04-23T23:28:20.577Z,7.27
2019-04-23T23:30:55.090Z,7.17
2019-04-23T23:35:53.418Z,7.53
2019-04-23T23:41:03.842Z,7.80
2019-04-23T23:46:23.095Z,7.57
2019-04-23T23:48:29.750Z,7.40
2019-04-23T23:51:14.401Z,7.87
2019-04-23T23:53:53.316Z,7.20
2019-04-23T23:58:55.313Z,7.47
